sensor_id;sensor_type;location;lat;lon;timestamp;P1;durP1;ratioP1;P2;durP2;ratioP2
12838;SDS011;6486;51.034;5.262;2022-12-07T00:00:55;4.83;;;3.43;;
12838;SDS011;6486;51.034;5.262;2022-12-07T00:03:28;6.03;;;3.93;;
12838;SDS011;6486;51.034;5.262;2022-12-07T00:05:56;4.97;;;4.03;;
12838;SDS011;6486;51.034;5.262;2022-12-07T00:08:22;4.37;;;3.37;;
12838;SDS011;6486;51.034;5.262;2022-12-07T00:10:48;6.57;;;3.43;;
12838;SDS011;6486;51.034;5.262;2022-12-07T00:13:13;7.90;;;4.37;;
12838;SDS011;6486;51.034;5.262;2022-12-07T00:15:39;5.10;;;3.30;;
12838;SDS011;6486;51.034;5.262;2022-12-07T00:18:05;10.40;;;4.30;;
12838;SDS011;6486;51.034;5.262;2022-12-07T00:20:30;4.60;;;3.67;;
12838;SDS011;6486;51.034;5.262;2022-12-07T00:22:56;4.30;;;3.13;;
12838;SDS011;6486;51.034;5.262;2022-12-07T00:25:22;7.67;;;4.43;;
12838;SDS011;6486;51.034;5.262;2022-12-07T00:27:47;8.33;;;4.03;;
12838;SDS011;6486;51.034;5.262;2022-12-07T00:30:13;6.63;;;3.73;;
12838;SDS011;6486;51.034;5.262;2022-12-07T00:32:39;4.37;;;3.30;;
12838;SDS011;6486;51.034;5.262;2022-12-07T00:35:04;7.80;;;4.43;;
12838;SDS011;6486;51.034;5.262;2022-12-07T00:37:30;7.63;;;4.53;;
12838;SDS011;6486;51.034;5.262;2022-12-07T00:39:56;7.43;;;4.77;;
12838;SDS011;6486;51.034;5.262;2022-12-07T00:42:21;6.80;;;3.57;;
12838;SDS011;6486;51.034;5.262;2022-12-07T00:44:47;6.13;;;3.57;;
12838;SDS011;6486;51.034;5.262;2022-12-07T00:47:12;6.93;;;4.10;;
12838;SDS011;6486;51.034;5.262;2022-12-07T00:49:38;5.93;;;3.27;;
12838;SDS011;6486;51.034;5.262;2022-12-07T00:52:03;4.67;;;3.47;;
12838;SDS011;6486;51.034;5.262;2022-12-07T00:54:29;7.17;;;4.20;;
12838;SDS011;6486;51.034;5.262;2022-12-07T00:56:55;5.93;;;3.43;;
12838;SDS011;6486;51.034;5.262;2022-12-07T00:59:20;6.47;;;4.40;;
12838;SDS011;6486;51.034;5.262;2022-12-07T01:01:46;9.67;;;3.80;;
12838;SDS011;6486;51.034;5.262;2022-12-07T01:04:11;4.33;;;3.43;;
12838;SDS011;6486;51.034;5.262;2022-12-07T01:06:38;5.50;;;3.80;;
12838;SDS011;6486;51.034;5.262;2022-12-07T01:09:03;5.90;;;3.87;;
12838;SDS011;6486;51.034;5.262;2022-12-07T01:11:30;10.93;;;4.67;;
12838;SDS011;6486;51.034;5.262;2022-12-07T01:13:56;8.90;;;4.93;;
12838;SDS011;6486;51.034;5.262;2022-12-07T01:16:23;8.03;;;4.13;;
12838;SDS011;6486;51.034;5.262;2022-12-07T01:18:51;5.80;;;4.13;;
12838;SDS011;6486;51.034;5.262;2022-12-07T01:21:19;6.60;;;4.33;;
12838;SDS011;6486;51.034;5.262;2022-12-07T01:24:07;8.27;;;4.63;;
12838;SDS011;6486;51.034;5.262;2022-12-07T01:26:35;10.47;;;5.10;;
12838;SDS011;6486;51.034;5.262;2022-12-07T01:29:00;6.70;;;4.33;;
12838;SDS011;6486;51.034;5.262;2022-12-07T01:31:27;8.17;;;3.97;;
12838;SDS011;6486;51.034;5.262;2022-12-07T01:33:54;6.53;;;4.53;;
12838;SDS011;6486;51.034;5.262;2022-12-07T01:36:29;5.63;;;3.67;;
12838;SDS011;6486;51.034;5.262;2022-12-07T01:38:57;9.63;;;5.00;;
12838;SDS011;6486;51.034;5.262;2022-12-07T01:41:25;9.53;;;5.10;;
12838;SDS011;6486;51.034;5.262;2022-12-07T01:46:37;10.97;;;4.90;;
12838;SDS011;6486;51.034;5.262;2022-12-07T01:49:06;6.33;;;3.93;;
12838;SDS011;6486;51.034;5.262;2022-12-07T01:51:35;8.13;;;4.90;;
12838;SDS011;6486;51.034;5.262;2022-12-07T01:54:03;5.17;;;3.67;;
12838;SDS011;6486;51.034;5.262;2022-12-07T01:56:28;8.60;;;5.13;;
12838;SDS011;6486;51.034;5.262;2022-12-07T01:58:55;6.00;;;4.07;;
12838;SDS011;6486;51.034;5.262;2022-12-07T02:01:22;7.53;;;4.47;;
12838;SDS011;6486;51.034;5.262;2022-12-07T02:03:48;6.27;;;4.47;;
12838;SDS011;6486;51.034;5.262;2022-12-07T02:06:16;5.60;;;3.67;;
12838;SDS011;6486;51.034;5.262;2022-12-07T02:08:45;5.40;;;4.07;;
12838;SDS011;6486;51.034;5.262;2022-12-07T02:11:12;4.63;;;2.97;;
12838;SDS011;6486;51.034;5.262;2022-12-07T02:13:38;8.67;;;4.43;;
12838;SDS011;6486;51.034;5.262;2022-12-07T02:16:11;6.47;;;4.50;;
12838;SDS011;6486;51.034;5.262;2022-12-07T02:21:34;7.33;;;3.80;;
12838;SDS011;6486;51.034;5.262;2022-12-07T02:32:01;5.57;;;3.37;;
12838;SDS011;6486;51.034;5.262;2022-12-07T02:34:31;5.93;;;4.43;;
12838;SDS011;6486;51.034;5.262;2022-12-07T02:37:18;5.90;;;3.20;;
12838;SDS011;6486;51.034;5.262;2022-12-07T02:39:53;9.43;;;5.23;;
12838;SDS011;6486;51.034;5.262;2022-12-07T02:42:23;7.37;;;5.17;;
12838;SDS011;6486;51.034;5.262;2022-12-07T02:44:57;4.60;;;3.63;;
12838;SDS011;6486;51.034;5.262;2022-12-07T02:47:24;7.23;;;4.10;;
12838;SDS011;6486;51.034;5.262;2022-12-07T02:49:51;7.53;;;5.07;;
12838;SDS011;6486;51.034;5.262;2022-12-07T02:52:17;8.03;;;6.33;;
12838;SDS011;6486;51.034;5.262;2022-12-07T02:54:43;8.30;;;4.47;;
12838;SDS011;6486;51.034;5.262;2022-12-07T03:00:19;8.37;;;5.30;;
12838;SDS011;6486;51.034;5.262;2022-12-07T03:02:53;7.20;;;5.13;;
12838;SDS011;6486;51.034;5.262;2022-12-07T03:13:15;9.30;;;5.10;;
12838;SDS011;6486;51.034;5.262;2022-12-07T03:15:47;6.70;;;4.67;;
12838;SDS011;6486;51.034;5.262;2022-12-07T03:18:28;8.20;;;4.53;;
12838;SDS011;6486;51.034;5.262;2022-12-07T03:20:57;6.83;;;4.80;;
12838;SDS011;6486;51.034;5.262;2022-12-07T03:23:27;8.10;;;4.93;;
12838;SDS011;6486;51.034;5.262;2022-12-07T03:25:55;7.57;;;4.83;;
12838;SDS011;6486;51.034;5.262;2022-12-07T03:28:24;13.83;;;5.00;;
12838;SDS011;6486;51.034;5.262;2022-12-07T03:30:59;17.33;;;5.03;;
12838;SDS011;6486;51.034;5.262;2022-12-07T03:36:35;11.10;;;5.70;;
12838;SDS011;6486;51.034;5.262;2022-12-07T03:39:07;10.63;;;5.37;;
12838;SDS011;6486;51.034;5.262;2022-12-07T03:41:34;7.93;;;5.80;;
12838;SDS011;6486;51.034;5.262;2022-12-07T03:44:02;11.07;;;5.03;;
12838;SDS011;6486;51.034;5.262;2022-12-07T03:49:31;7.43;;;4.97;;
12838;SDS011;6486;51.034;5.262;2022-12-07T03:52:26;11.13;;;5.70;;
12838;SDS011;6486;51.034;5.262;2022-12-07T03:54:57;12.53;;;6.27;;
12838;SDS011;6486;51.034;5.262;2022-12-07T03:57:31;9.17;;;5.67;;
12838;SDS011;6486;51.034;5.262;2022-12-07T03:59:58;7.83;;;5.07;;
12838;SDS011;6486;51.034;5.262;2022-12-07T04:02:25;12.70;;;6.23;;
12838;SDS011;6486;51.034;5.262;2022-12-07T04:04:52;12.87;;;6.10;;
12838;SDS011;6486;51.034;5.262;2022-12-07T04:07:18;6.77;;;5.00;;
12838;SDS011;6486;51.034;5.262;2022-12-07T04:09:44;8.67;;;4.87;;
12838;SDS011;6486;51.034;5.262;2022-12-07T04:12:09;7.57;;;4.40;;
12838;SDS011;6486;51.034;5.262;2022-12-07T04:14:35;10.83;;;5.17;;
12838;SDS011;6486;51.034;5.262;2022-12-07T04:17:01;8.30;;;5.70;;
12838;SDS011;6486;51.034;5.262;2022-12-07T04:19:30;8.23;;;4.57;;
12838;SDS011;6486;51.034;5.262;2022-12-07T04:21:57;7.13;;;4.73;;
12838;SDS011;6486;51.034;5.262;2022-12-07T04:24:24;5.57;;;4.53;;
12838;SDS011;6486;51.034;5.262;2022-12-07T04:26:50;6.80;;;4.50;;
12838;SDS011;6486;51.034;5.262;2022-12-07T04:29:16;6.60;;;3.97;;
12838;SDS011;6486;51.034;5.262;2022-12-07T04:31:42;7.60;;;4.97;;
12838;SDS011;6486;51.034;5.262;2022-12-07T04:34:09;6.20;;;4.33;;
12838;SDS011;6486;51.034;5.262;2022-12-07T04:36:35;5.83;;;4.47;;
12838;SDS011;6486;51.034;5.262;2022-12-07T04:39:01;12.63;;;4.97;;
12838;SDS011;6486;51.034;5.262;2022-12-07T04:41:27;8.60;;;4.93;;
12838;SDS011;6486;51.034;5.262;2022-12-07T04:43:56;4.67;;;3.90;;
12838;SDS011;6486;51.034;5.262;2022-12-07T04:46:24;6.87;;;3.77;;
12838;SDS011;6486;51.034;5.262;2022-12-07T04:48:51;8.47;;;4.57;;
12838;SDS011;6486;51.034;5.262;2022-12-07T04:51:25;8.10;;;4.43;;
12838;SDS011;6486;51.034;5.262;2022-12-07T04:53:53;12.37;;;4.93;;
12838;SDS011;6486;51.034;5.262;2022-12-07T04:56:19;7.53;;;4.60;;
12838;SDS011;6486;51.034;5.262;2022-12-07T04:58:45;7.30;;;5.00;;
12838;SDS011;6486;51.034;5.262;2022-12-07T05:01:12;8.27;;;5.63;;
12838;SDS011;6486;51.034;5.262;2022-12-07T05:03:39;7.80;;;4.33;;
12838;SDS011;6486;51.034;5.262;2022-12-07T05:06:05;6.57;;;4.57;;
12838;SDS011;6486;51.034;5.262;2022-12-07T05:08:32;8.13;;;4.90;;
12838;SDS011;6486;51.034;5.262;2022-12-07T05:10:59;7.23;;;3.97;;
12838;SDS011;6486;51.034;5.262;2022-12-07T05:13:25;5.47;;;4.33;;
12838;SDS011;6486;51.034;5.262;2022-12-07T05:15:50;6.03;;;3.27;;
12838;SDS011;6486;51.034;5.262;2022-12-07T05:18:16;8.60;;;4.53;;
12838;SDS011;6486;51.034;5.262;2022-12-07T05:20:42;7.67;;;3.93;;
12838;SDS011;6486;51.034;5.262;2022-12-07T05:23:09;8.10;;;5.07;;
12838;SDS011;6486;51.034;5.262;2022-12-07T05:25:35;5.57;;;4.40;;
12838;SDS011;6486;51.034;5.262;2022-12-07T05:28:01;7.60;;;5.20;;
12838;SDS011;6486;51.034;5.262;2022-12-07T05:30:27;7.67;;;4.80;;
12838;SDS011;6486;51.034;5.262;2022-12-07T05:32:54;9.50;;;4.40;;
12838;SDS011;6486;51.034;5.262;2022-12-07T05:35:20;6.77;;;3.80;;
12838;SDS011;6486;51.034;5.262;2022-12-07T05:37:45;6.97;;;3.83;;
12838;SDS011;6486;51.034;5.262;2022-12-07T05:40:12;7.03;;;4.20;;
12838;SDS011;6486;51.034;5.262;2022-12-07T05:42:39;6.47;;;5.00;;
12838;SDS011;6486;51.034;5.262;2022-12-07T05:45:05;7.23;;;5.30;;
12838;SDS011;6486;51.034;5.262;2022-12-07T05:47:31;8.27;;;4.43;;
12838;SDS011;6486;51.034;5.262;2022-12-07T05:49:56;11.83;;;4.73;;
12838;SDS011;6486;51.034;5.262;2022-12-07T05:52:22;6.40;;;3.63;;
12838;SDS011;6486;51.034;5.262;2022-12-07T05:54:48;10.53;;;4.10;;
12838;SDS011;6486;51.034;5.262;2022-12-07T05:57:13;15.03;;;4.97;;
12838;SDS011;6486;51.034;5.262;2022-12-07T05:59:39;15.13;;;5.50;;
12838;SDS011;6486;51.034;5.262;2022-12-07T06:02:06;13.60;;;5.33;;
12838;SDS011;6486;51.034;5.262;2022-12-07T06:04:34;9.43;;;4.40;;
12838;SDS011;6486;51.034;5.262;2022-12-07T06:07:05;7.37;;;4.17;;
12838;SDS011;6486;51.034;5.262;2022-12-07T06:09:31;9.33;;;4.97;;
12838;SDS011;6486;51.034;5.262;2022-12-07T06:11:57;7.50;;;4.57;;
12838;SDS011;6486;51.034;5.262;2022-12-07T06:14:41;8.00;;;3.90;;
12838;SDS011;6486;51.034;5.262;2022-12-07T06:17:07;7.97;;;4.53;;
12838;SDS011;6486;51.034;5.262;2022-12-07T06:19:33;5.73;;;3.70;;
12838;SDS011;6486;51.034;5.262;2022-12-07T06:22:00;8.93;;;4.47;;
12838;SDS011;6486;51.034;5.262;2022-12-07T06:24:26;15.07;;;4.17;;
12838;SDS011;6486;51.034;5.262;2022-12-07T06:26:52;5.07;;;3.37;;
12838;SDS011;6486;51.034;5.262;2022-12-07T06:29:18;8.10;;;5.53;;
12838;SDS011;6486;51.034;5.262;2022-12-07T06:31:44;5.73;;;4.33;;
12838;SDS011;6486;51.034;5.262;2022-12-07T06:34:11;7.53;;;3.50;;
12838;SDS011;6486;51.034;5.262;2022-12-07T06:36:38;8.90;;;4.73;;
12838;SDS011;6486;51.034;5.262;2022-12-07T06:39:05;9.63;;;5.30;;
12838;SDS011;6486;51.034;5.262;2022-12-07T06:41:31;7.73;;;3.97;;
12838;SDS011;6486;51.034;5.262;2022-12-07T06:43:57;7.87;;;4.20;;
12838;SDS011;6486;51.034;5.262;2022-12-07T06:46:23;7.10;;;4.80;;
12838;SDS011;6486;51.034;5.262;2022-12-07T06:48:48;8.00;;;4.50;;
12838;SDS011;6486;51.034;5.262;2022-12-07T06:51:14;8.77;;;4.30;;
12838;SDS011;6486;51.034;5.262;2022-12-07T06:53:40;8.00;;;4.37;;
12838;SDS011;6486;51.034;5.262;2022-12-07T06:56:06;7.77;;;4.87;;
12838;SDS011;6486;51.034;5.262;2022-12-07T06:58:31;8.73;;;5.73;;
12838;SDS011;6486;51.034;5.262;2022-12-07T07:00:57;7.50;;;5.33;;
12838;SDS011;6486;51.034;5.262;2022-12-07T07:03:23;5.43;;;4.03;;
12838;SDS011;6486;51.034;5.262;2022-12-07T07:05:48;10.20;;;4.47;;
12838;SDS011;6486;51.034;5.262;2022-12-07T07:08:14;10.77;;;5.07;;
12838;SDS011;6486;51.034;5.262;2022-12-07T07:10:40;16.17;;;4.90;;
12838;SDS011;6486;51.034;5.262;2022-12-07T07:13:06;5.37;;;4.17;;
12838;SDS011;6486;51.034;5.262;2022-12-07T07:15:32;8.07;;;4.03;;
12838;SDS011;6486;51.034;5.262;2022-12-07T07:17:58;6.93;;;4.07;;
12838;SDS011;6486;51.034;5.262;2022-12-07T07:20:24;7.47;;;4.33;;
12838;SDS011;6486;51.034;5.262;2022-12-07T07:22:50;12.03;;;4.43;;
12838;SDS011;6486;51.034;5.262;2022-12-07T07:25:15;5.37;;;3.37;;
12838;SDS011;6486;51.034;5.262;2022-12-07T07:27:41;9.97;;;4.20;;
12838;SDS011;6486;51.034;5.262;2022-12-07T07:30:07;7.20;;;3.67;;
12838;SDS011;6486;51.034;5.262;2022-12-07T07:32:33;8.00;;;3.67;;
12838;SDS011;6486;51.034;5.262;2022-12-07T07:34:58;11.03;;;4.00;;
12838;SDS011;6486;51.034;5.262;2022-12-07T07:37:24;9.03;;;4.50;;
12838;SDS011;6486;51.034;5.262;2022-12-07T07:39:50;7.27;;;3.50;;
12838;SDS011;6486;51.034;5.262;2022-12-07T07:42:16;6.23;;;3.47;;
12838;SDS011;6486;51.034;5.262;2022-12-07T07:44:41;5.63;;;3.70;;
12838;SDS011;6486;51.034;5.262;2022-12-07T07:47:07;5.73;;;3.87;;
12838;SDS011;6486;51.034;5.262;2022-12-07T07:49:32;5.27;;;3.43;;
12838;SDS011;6486;51.034;5.262;2022-12-07T07:51:58;7.03;;;3.77;;
12838;SDS011;6486;51.034;5.262;2022-12-07T07:54:24;4.77;;;3.30;;
12838;SDS011;6486;51.034;5.262;2022-12-07T07:56:49;9.70;;;4.03;;
12838;SDS011;6486;51.034;5.262;2022-12-07T07:59:15;6.47;;;3.83;;
12838;SDS011;6486;51.034;5.262;2022-12-07T08:01:40;4.37;;;3.87;;
12838;SDS011;6486;51.034;5.262;2022-12-07T08:04:06;6.70;;;3.47;;
12838;SDS011;6486;51.034;5.262;2022-12-07T08:06:32;4.13;;;2.83;;
12838;SDS011;6486;51.034;5.262;2022-12-07T08:08:58;7.03;;;3.83;;
12838;SDS011;6486;51.034;5.262;2022-12-07T08:11:23;10.13;;;4.00;;
12838;SDS011;6486;51.034;5.262;2022-12-07T08:13:49;10.20;;;4.47;;
12838;SDS011;6486;51.034;5.262;2022-12-07T08:16:15;8.87;;;5.03;;
12838;SDS011;6486;51.034;5.262;2022-12-07T08:18:41;5.70;;;4.43;;
12838;SDS011;6486;51.034;5.262;2022-12-07T08:21:09;4.20;;;3.10;;
12838;SDS011;6486;51.034;5.262;2022-12-07T08:23:37;6.20;;;3.83;;
12838;SDS011;6486;51.034;5.262;2022-12-07T08:26:03;5.97;;;3.63;;
12838;SDS011;6486;51.034;5.262;2022-12-07T08:28:31;5.77;;;2.77;;
12838;SDS011;6486;51.034;5.262;2022-12-07T08:31:00;7.63;;;3.33;;
12838;SDS011;6486;51.034;5.262;2022-12-07T08:33:27;7.57;;;4.07;;
12838;SDS011;6486;51.034;5.262;2022-12-07T08:35:52;4.77;;;3.83;;
12838;SDS011;6486;51.034;5.262;2022-12-07T08:38:18;5.50;;;3.63;;
12838;SDS011;6486;51.034;5.262;2022-12-07T08:40:44;5.93;;;4.27;;
12838;SDS011;6486;51.034;5.262;2022-12-07T08:43:09;5.43;;;3.47;;
12838;SDS011;6486;51.034;5.262;2022-12-07T08:45:35;3.40;;;3.07;;
12838;SDS011;6486;51.034;5.262;2022-12-07T08:48:02;14.63;;;5.23;;
12838;SDS011;6486;51.034;5.262;2022-12-07T08:50:32;7.30;;;3.50;;
12838;SDS011;6486;51.034;5.262;2022-12-07T08:52:58;6.83;;;4.13;;
12838;SDS011;6486;51.034;5.262;2022-12-07T08:55:24;6.50;;;3.03;;
12838;SDS011;6486;51.034;5.262;2022-12-07T08:57:51;5.43;;;3.97;;
12838;SDS011;6486;51.034;5.262;2022-12-07T09:00:17;12.43;;;4.50;;
12838;SDS011;6486;51.034;5.262;2022-12-07T09:02:43;6.23;;;3.87;;
12838;SDS011;6486;51.034;5.262;2022-12-07T09:05:09;7.60;;;3.57;;
12838;SDS011;6486;51.034;5.262;2022-12-07T09:07:35;5.33;;;3.63;;
12838;SDS011;6486;51.034;5.262;2022-12-07T09:10:03;3.37;;;3.07;;
12838;SDS011;6486;51.034;5.262;2022-12-07T09:12:29;6.60;;;4.27;;
12838;SDS011;6486;51.034;5.262;2022-12-07T09:14:55;8.13;;;3.87;;
12838;SDS011;6486;51.034;5.262;2022-12-07T09:17:21;6.93;;;4.10;;
12838;SDS011;6486;51.034;5.262;2022-12-07T09:19:46;6.80;;;4.00;;
12838;SDS011;6486;51.034;5.262;2022-12-07T09:22:12;6.87;;;3.60;;
12838;SDS011;6486;51.034;5.262;2022-12-07T09:24:37;16.87;;;4.43;;
12838;SDS011;6486;51.034;5.262;2022-12-07T09:27:03;7.67;;;4.47;;
12838;SDS011;6486;51.034;5.262;2022-12-07T09:29:29;5.13;;;3.40;;
12838;SDS011;6486;51.034;5.262;2022-12-07T09:31:54;9.50;;;3.87;;
12838;SDS011;6486;51.034;5.262;2022-12-07T09:34:20;5.80;;;3.70;;
12838;SDS011;6486;51.034;5.262;2022-12-07T09:36:46;5.87;;;3.67;;
12838;SDS011;6486;51.034;5.262;2022-12-07T09:39:12;3.80;;;2.63;;
12838;SDS011;6486;51.034;5.262;2022-12-07T09:41:38;5.70;;;3.10;;
12838;SDS011;6486;51.034;5.262;2022-12-07T09:44:09;5.03;;;3.37;;
12838;SDS011;6486;51.034;5.262;2022-12-07T09:46:38;3.60;;;3.17;;
12838;SDS011;6486;51.034;5.262;2022-12-07T09:49:08;7.33;;;2.97;;
12838;SDS011;6486;51.034;5.262;2022-12-07T09:51:41;7.43;;;2.77;;
12838;SDS011;6486;51.034;5.262;2022-12-07T09:54:08;4.67;;;2.60;;
12838;SDS011;6486;51.034;5.262;2022-12-07T09:56:37;2.17;;;1.83;;
12838;SDS011;6486;51.034;5.262;2022-12-07T09:59:03;2.73;;;2.07;;
12838;SDS011;6486;51.034;5.262;2022-12-07T10:01:29;3.10;;;2.30;;
12838;SDS011;6486;51.034;5.262;2022-12-07T10:04:14;3.50;;;2.67;;
12838;SDS011;6486;51.034;5.262;2022-12-07T10:06:48;4.90;;;1.80;;
12838;SDS011;6486;51.034;5.262;2022-12-07T10:09:16;4.87;;;1.67;;
12838;SDS011;6486;51.034;5.262;2022-12-07T10:14:34;2.67;;;1.50;;
12838;SDS011;6486;51.034;5.262;2022-12-07T10:17:02;2.63;;;2.13;;
12838;SDS011;6486;51.034;5.262;2022-12-07T10:20:10;4.17;;;1.63;;
12838;SDS011;6486;51.034;5.262;2022-12-07T10:25:33;1.57;;;1.13;;
12838;SDS011;6486;51.034;5.262;2022-12-07T10:28:02;2.07;;;1.40;;
12838;SDS011;6486;51.034;5.262;2022-12-07T10:30:46;3.60;;;1.83;;
12838;SDS011;6486;51.034;5.262;2022-12-07T10:35:54;2.47;;;1.93;;
12838;SDS011;6486;51.034;5.262;2022-12-07T10:38:19;2.20;;;1.57;;
12838;SDS011;6486;51.034;5.262;2022-12-07T10:40:45;13.50;;;2.67;;
12838;SDS011;6486;51.034;5.262;2022-12-07T10:49:42;3.00;;;1.90;;
12838;SDS011;6486;51.034;5.262;2022-12-07T10:54:36;2.53;;;1.77;;
12838;SDS011;6486;51.034;5.262;2022-12-07T10:59:52;2.50;;;1.90;;
12838;SDS011;6486;51.034;5.262;2022-12-07T11:15:41;3.87;;;1.77;;
12838;SDS011;6486;51.034;5.262;2022-12-07T11:18:15;9.40;;;2.80;;
12838;SDS011;6486;51.034;5.262;2022-12-07T11:23:49;3.50;;;1.93;;
12838;SDS011;6486;51.034;5.262;2022-12-07T11:37:08;5.30;;;2.30;;
12838;SDS011;6486;51.034;5.262;2022-12-07T11:39:44;2.80;;;1.40;;
12838;SDS011;6486;51.034;5.262;2022-12-07T11:42:39;3.30;;;1.63;;
12838;SDS011;6486;51.034;5.262;2022-12-07T11:47:59;5.87;;;2.37;;
12838;SDS011;6486;51.034;5.262;2022-12-07T11:50:33;3.20;;;1.73;;
12838;SDS011;6486;51.034;5.262;2022-12-07T11:53:18;6.40;;;2.60;;
12838;SDS011;6486;51.034;5.262;2022-12-07T12:01:42;2.23;;;1.43;;
12838;SDS011;6486;51.034;5.262;2022-12-07T12:04:01;3.27;;;1.30;;
12838;SDS011;6486;51.034;5.262;2022-12-07T12:06:39;4.80;;;2.33;;
12838;SDS011;6486;51.034;5.262;2022-12-07T12:17:39;5.63;;;2.73;;
12838;SDS011;6486;51.034;5.262;2022-12-07T12:27:51;7.63;;;2.47;;
12838;SDS011;6486;51.034;5.262;2022-12-07T12:30:30;2.03;;;1.57;;
12838;SDS011;6486;51.034;5.262;2022-12-07T12:33:16;13.70;;;1.70;;
12838;SDS011;6486;51.034;5.262;2022-12-07T12:36:05;2.10;;;1.20;;
12838;SDS011;6486;51.034;5.262;2022-12-07T12:46:53;1.00;;;1.00;;
12838;SDS011;6486;51.034;5.262;2022-12-07T12:54:59;0.90;;;0.83;;
12838;SDS011;6486;51.034;5.262;2022-12-07T12:57:28;2.13;;;1.47;;
12838;SDS011;6486;51.034;5.262;2022-12-07T13:10:24;2.87;;;1.53;;
12838;SDS011;6486;51.034;5.262;2022-12-07T13:12:59;1.23;;;1.13;;
12838;SDS011;6486;51.034;5.262;2022-12-07T13:15:36;2.27;;;1.90;;
12838;SDS011;6486;51.034;5.262;2022-12-07T13:18:04;3.87;;;2.00;;
12838;SDS011;6486;51.034;5.262;2022-12-07T13:23:12;1.23;;;0.90;;
12838;SDS011;6486;51.034;5.262;2022-12-07T13:25:45;0.93;;;0.93;;
12838;SDS011;6486;51.034;5.262;2022-12-07T13:28:17;0.70;;;0.70;;
12838;SDS011;6486;51.034;5.262;2022-12-07T13:30:49;0.67;;;0.60;;
12838;SDS011;6486;51.034;5.262;2022-12-07T13:33:18;2.00;;;0.70;;
12838;SDS011;6486;51.034;5.262;2022-12-07T13:35:44;8.70;;;1.47;;
12838;SDS011;6486;51.034;5.262;2022-12-07T13:43:29;0.77;;;0.77;;
12838;SDS011;6486;51.034;5.262;2022-12-07T13:45:58;1.23;;;0.90;;
12838;SDS011;6486;51.034;5.262;2022-12-07T13:48:33;4.53;;;1.57;;
12838;SDS011;6486;51.034;5.262;2022-12-07T13:51:02;1.37;;;1.10;;
12838;SDS011;6486;51.034;5.262;2022-12-07T13:53:28;1.10;;;0.87;;
12838;SDS011;6486;51.034;5.262;2022-12-07T13:55:56;1.13;;;1.07;;
12838;SDS011;6486;51.034;5.262;2022-12-07T13:58:30;3.60;;;1.00;;
12838;SDS011;6486;51.034;5.262;2022-12-07T14:00:57;4.63;;;0.90;;
12838;SDS011;6486;51.034;5.262;2022-12-07T14:03:25;1.97;;;0.97;;
12838;SDS011;6486;51.034;5.262;2022-12-07T14:06:04;2.37;;;0.80;;
12838;SDS011;6486;51.034;5.262;2022-12-07T14:09:25;3.00;;;1.47;;
12838;SDS011;6486;51.034;5.262;2022-12-07T14:11:44;1.53;;;1.40;;
12838;SDS011;6486;51.034;5.262;2022-12-07T14:14:11;5.20;;;1.33;;
12838;SDS011;6486;51.034;5.262;2022-12-07T14:16:41;1.27;;;1.20;;
12838;SDS011;6486;51.034;5.262;2022-12-07T14:19:38;1.37;;;1.23;;
12838;SDS011;6486;51.034;5.262;2022-12-07T14:22:44;5.27;;;1.97;;
12838;SDS011;6486;51.034;5.262;2022-12-07T14:25:22;2.00;;;1.60;;
12838;SDS011;6486;51.034;5.262;2022-12-07T14:27:50;1.03;;;1.03;;
12838;SDS011;6486;51.034;5.262;2022-12-07T14:30:21;2.20;;;1.27;;
12838;SDS011;6486;51.034;5.262;2022-12-07T14:32:51;1.77;;;1.67;;
12838;SDS011;6486;51.034;5.262;2022-12-07T14:35:22;1.50;;;1.07;;
12838;SDS011;6486;51.034;5.262;2022-12-07T14:37:49;4.03;;;1.27;;
12838;SDS011;6486;51.034;5.262;2022-12-07T14:40:26;2.10;;;1.47;;
12838;SDS011;6486;51.034;5.262;2022-12-07T14:45:26;2.70;;;1.70;;
12838;SDS011;6486;51.034;5.262;2022-12-07T14:47:52;2.07;;;1.20;;
12838;SDS011;6486;51.034;5.262;2022-12-07T14:50:18;4.07;;;1.77;;
12838;SDS011;6486;51.034;5.262;2022-12-07T14:52:49;3.03;;;1.47;;
12838;SDS011;6486;51.034;5.262;2022-12-07T14:55:27;1.60;;;1.43;;
12838;SDS011;6486;51.034;5.262;2022-12-07T14:57:55;2.37;;;1.60;;
12838;SDS011;6486;51.034;5.262;2022-12-07T15:00:22;1.93;;;1.33;;
12838;SDS011;6486;51.034;5.262;2022-12-07T15:02:49;1.70;;;1.60;;
12838;SDS011;6486;51.034;5.262;2022-12-07T15:05:16;4.13;;;2.23;;
12838;SDS011;6486;51.034;5.262;2022-12-07T15:07:42;10.37;;;1.50;;
12838;SDS011;6486;51.034;5.262;2022-12-07T15:10:13;2.53;;;2.23;;
12838;SDS011;6486;51.034;5.262;2022-12-07T15:12:44;2.97;;;2.13;;
12838;SDS011;6486;51.034;5.262;2022-12-07T15:15:10;8.03;;;2.23;;
12838;SDS011;6486;51.034;5.262;2022-12-07T15:17:35;8.90;;;2.70;;
12838;SDS011;6486;51.034;5.262;2022-12-07T15:20:01;1.70;;;1.50;;
12838;SDS011;6486;51.034;5.262;2022-12-07T15:22:28;5.47;;;2.23;;
12838;SDS011;6486;51.034;5.262;2022-12-07T15:24:56;3.53;;;2.43;;
12838;SDS011;6486;51.034;5.262;2022-12-07T15:27:22;4.00;;;2.20;;
12838;SDS011;6486;51.034;5.262;2022-12-07T15:29:47;3.10;;;1.47;;
12838;SDS011;6486;51.034;5.262;2022-12-07T15:32:13;5.67;;;2.47;;
12838;SDS011;6486;51.034;5.262;2022-12-07T15:34:39;4.67;;;2.87;;
12838;SDS011;6486;51.034;5.262;2022-12-07T15:37:04;3.30;;;1.70;;
12838;SDS011;6486;51.034;5.262;2022-12-07T15:39:31;1.87;;;1.50;;
12838;SDS011;6486;51.034;5.262;2022-12-07T15:41:56;5.77;;;2.00;;
12838;SDS011;6486;51.034;5.262;2022-12-07T15:44:22;2.17;;;2.00;;
12838;SDS011;6486;51.034;5.262;2022-12-07T15:47:06;2.53;;;1.67;;
12838;SDS011;6486;51.034;5.262;2022-12-07T15:49:32;3.77;;;2.30;;
12838;SDS011;6486;51.034;5.262;2022-12-07T15:51:57;2.83;;;2.10;;
12838;SDS011;6486;51.034;5.262;2022-12-07T15:54:26;3.83;;;2.87;;
12838;SDS011;6486;51.034;5.262;2022-12-07T15:56:53;2.50;;;2.07;;
12838;SDS011;6486;51.034;5.262;2022-12-07T15:59:20;2.97;;;1.80;;
12838;SDS011;6486;51.034;5.262;2022-12-07T16:01:46;4.07;;;2.37;;
12838;SDS011;6486;51.034;5.262;2022-12-07T16:04:11;2.93;;;2.27;;
12838;SDS011;6486;51.034;5.262;2022-12-07T16:06:37;1.80;;;1.70;;
12838;SDS011;6486;51.034;5.262;2022-12-07T16:09:03;4.07;;;2.57;;
12838;SDS011;6486;51.034;5.262;2022-12-07T16:11:30;1.67;;;1.30;;
12838;SDS011;6486;51.034;5.262;2022-12-07T16:13:55;1.57;;;1.23;;
12838;SDS011;6486;51.034;5.262;2022-12-07T16:16:21;4.43;;;2.30;;
12838;SDS011;6486;51.034;5.262;2022-12-07T16:18:47;2.00;;;1.80;;
12838;SDS011;6486;51.034;5.262;2022-12-07T16:21:14;1.83;;;1.60;;
12838;SDS011;6486;51.034;5.262;2022-12-07T16:23:40;2.47;;;2.10;;
12838;SDS011;6486;51.034;5.262;2022-12-07T16:26:10;2.60;;;1.73;;
12838;SDS011;6486;51.034;5.262;2022-12-07T16:28:41;2.53;;;1.80;;
12838;SDS011;6486;51.034;5.262;2022-12-07T16:31:15;2.90;;;2.30;;
12838;SDS011;6486;51.034;5.262;2022-12-07T16:33:42;2.17;;;1.57;;
12838;SDS011;6486;51.034;5.262;2022-12-07T16:36:09;5.17;;;2.27;;
12838;SDS011;6486;51.034;5.262;2022-12-07T16:38:36;2.17;;;1.53;;
12838;SDS011;6486;51.034;5.262;2022-12-07T16:41:03;4.63;;;2.10;;
12838;SDS011;6486;51.034;5.262;2022-12-07T16:43:30;3.13;;;1.90;;
12838;SDS011;6486;51.034;5.262;2022-12-07T16:45:56;3.07;;;1.80;;
12838;SDS011;6486;51.034;5.262;2022-12-07T16:48:21;3.40;;;1.70;;
12838;SDS011;6486;51.034;5.262;2022-12-07T16:50:47;2.43;;;1.50;;
12838;SDS011;6486;51.034;5.262;2022-12-07T16:53:13;4.50;;;2.40;;
12838;SDS011;6486;51.034;5.262;2022-12-07T16:55:41;1.93;;;1.20;;
12838;SDS011;6486;51.034;5.262;2022-12-07T16:58:08;1.40;;;1.30;;
12838;SDS011;6486;51.034;5.262;2022-12-07T17:00:35;5.63;;;1.50;;
12838;SDS011;6486;51.034;5.262;2022-12-07T17:03:01;3.40;;;2.47;;
12838;SDS011;6486;51.034;5.262;2022-12-07T17:05:28;2.93;;;1.90;;
12838;SDS011;6486;51.034;5.262;2022-12-07T17:07:54;1.70;;;1.27;;
12838;SDS011;6486;51.034;5.262;2022-12-07T17:10:20;5.10;;;1.97;;
12838;SDS011;6486;51.034;5.262;2022-12-07T17:12:46;1.90;;;1.60;;
12838;SDS011;6486;51.034;5.262;2022-12-07T17:15:12;1.57;;;1.37;;
12838;SDS011;6486;51.034;5.262;2022-12-07T17:17:41;3.73;;;1.90;;
12838;SDS011;6486;51.034;5.262;2022-12-07T17:20:08;2.13;;;1.40;;
12838;SDS011;6486;51.034;5.262;2022-12-07T17:22:34;1.67;;;1.50;;
12838;SDS011;6486;51.034;5.262;2022-12-07T17:25:00;2.93;;;1.57;;